Strona główna
METAR-TAF:

METAR-TAF

Lotnisko :

Port lotniczy Ipoh

Ipoh, Malezja

Szerokość geograficzna: 04-34-09N, Długość geograficzna: 101-05-35E, wysokość: 40 m

Aktualna obserwacja pogody

Raport powstał 46 minut temu, godzina 10:00 UTC
Wiatr 6 kt od południowy zachód, zmienny między południe i zachodnio-południowy zachód
Temperatura 32°C
Wilgotność 67%
Ciśnienie 1007 hPa
Widzialność 10 km lub więcej
Mało chmury na wysokości 1700 ft, Cumulonimbus.
Rozproszone chmury na wysokości 14000 ft
Przerywane chmury na wysokości 28000 ft

METAR: WMKI 181000Z 23006KT 190V250 9999 FEW017CB SCT140 BKN280 32/25 Q1007

czas: 18:46 (10:46 UTC)

Prognoza

Raport powstał 2 godziny i 20 minut temu, godzina 08:26 UTC
Prognoza ważna od 18 godzina 08 UTC do 19 godzina 06 UTC
Wiatr 3 kt z kierunków zmiennych
Widzialność: 9000 m
Mało chmury na wysokości 2000 ft

TAF: WMKI 180826Z 1808/1906 VRB03KT 9000 FEW020

Obserwacja i prognoza pogody dla ponad 4000 lotnisk (raport METAR i TAF).

Dostępne stacje oznaczono żółtymi i czerwonymi punktami na mapie.

Najedź kursorem aby zobaczyć nazwę stacji.

Kliknij aby zobaczyć obserwacje i prognozy pogody.

Aby zmienić mapę: kliknij na zielony przycisk z czarnym krzyżykiem, aby powiększyć; na zielony przycisk z myślnikiem, aby pomniejszyć; na zielone strzałki, aby przejść do map sąsiednich.


METAR-TAF: